Latest Coastal Weather Observations for Moruya Airport

IDN60701

Issued at 2:51 pm EST Saturday 24 August 2019 (issued every 10 minutes, with the page automatically refreshed every 10 minutes)

About coastal observations | Map of coastal stations | Coastal observations for NSW | Marine services | Other Formats
Station Details ID: 069148 Name: MORUYA AIRPORT AWS Lat: -35.90 Lon: 150.14 Height: 4.0 m
Data from the previous 72 hours. | See also: Recent months at Moruya Airport
Date/Time
EST
Wind Sea
Height
m
Swell Vis
km
Cloud Weather Temp
°C
Press
hPa
Rain since
9am
mm
Dir  Spd
kts
Gust
kts
Height
m
Period
s
Dir
24/02:30pm SE 8 11 - - - - 10 - - 17.1 1013.2 0.0
24/02:00pm SE 10 14 - - - - 10 - - 16.8 1013.4 0.0
24/01:30pm SE 11 14 - - - - 10 - - 16.5 1013.6 0.0
24/01:00pm SE 11 14 - - - - 10 - - 16.6 1013.9 0.0
24/12:30pm SE 11 15 - - - - 10 - - 17.0 1014.2 0.0
24/12:00pm SE 8 10 - - - - 10 - - 18.5 1014.7 0.0
24/11:30am ESE 8 9 - - - - 10 - - 17.4 1015.4 0.0
24/11:00am E 7 10 - - - - 10 - - 17.5 1015.8 0.0
24/10:30am E 9 11 - - - - 10 - - 17.4 1016.2 0.0
24/10:00am WNW 4 6 - - - - 10 - - 20.3 1016.5 0.0
24/09:30am WSW 5 7 - - - - 10 - - 18.3 1016.8 0.0
24/09:00am SW 7 8 - - - - 10 - - 15.9 1017.0 0.0
24/08:30am SW 7 9 - - - - 10 - - 14.1 1017.1 0.0
24/08:00am WSW 6 8 - - - - 10 - - 13.5 1017.1 0.0
24/07:30am S 6 9 - - - - 10 - - 13.5 1016.9 0.0
24/07:00am NW 8 14 - - - - 10 - - 14.0 1016.0 0.0
24/06:30am NNW 9 15 - - - - 10 - - 13.3 1015.7 0.0
24/06:00am NNW 8 11 - - - - 10 - - 13.4 1015.8 0.0
24/05:30am NW 11 18 - - - - 10 - - 14.6 1015.7 0.0
24/05:00am NW 10 17 - - - - 10 - - 14.1 1015.9 0.0
24/04:30am WNW 9 14 - - - - 10 - - 13.9 1016.1 0.0
24/04:00am WNW 8 14 - - - - 10 - - 13.9 1016.2 0.0
24/03:30am WNW 7 15 - - - - 10 - - 13.7 1016.3 0.0
24/03:00am NE 4 6 - - - - 10 - - 11.0 1016.6 0.0
24/02:30am NW 5 9 - - - - 10 - - 11.4 1016.8 0.0
24/02:00am WNW 7 14 - - - - 10 - - 9.9 1017.1 0.0
24/01:53am WNW 7 14 - - - - 10 - - 8.2 1017.2 0.0
24/01:30am NNW 5 6 - - - - 10 - - 1.1 1017.6 0.0
24/01:00am NW 3 5 - - - - 10 - - 0.4 1017.9 0.0
24/12:30am NNW 3 5 - - - - 10 - - 1.7 1018.1 0.0
24/12:00am NNW 5 6 - - - - 10 - - 1.2 1018.3 0.0
 
Date/Time
EST
Wind Sea
Height
m
Swell Vis
km
Cloud Weather Temp
°C
Press
hPa
Rain since
9am
mm
Dir  Spd
kts
Gust
kts
Height
m
Period
s
Dir
23/11:30pm NW 5 6 - - - - 10 - - 1.8 1018.7 0.0
23/11:00pm NW 5 7 - - - - 10 - - 2.0 1019.0 0.0
23/10:30pm NNW 6 6 - - - - 10 - - 2.5 1019.3 0.0
23/10:00pm NNW 4 6 - - - - 10 - - 2.9 1019.6 0.0
23/09:30pm NW 1 4 - - - - 10 - - 3.3 1019.8 0.0
23/09:00pm NW 4 5 - - - - 10 - - 3.1 1020.2 0.0
23/08:30pm W 3 4 - - - - 10 - - 4.4 1020.4 0.0
23/08:00pm NW 3 4 - - - - 10 - - 5.3 1020.5 0.0
23/07:30pm NW 3 4 - - - - 10 - - 6.2 1020.5 0.0
23/07:00pm NW 2 3 - - - - 10 - - 6.9 1020.6 0.0
23/06:30pm NNW 3 4 - - - - 10 - - 8.3 1020.6 0.0
23/06:00pm N 3 4 - - - - 10 - - 11.3 1020.6 0.0
23/05:30pm N 4 5 - - - - 10 - - 13.1 1020.7 0.0
23/05:00pm N 8 11 - - - - 10 - - 14.0 1020.8 0.0
23/04:30pm NNE 13 17 - - - - 10 - - 15.0 1020.8 0.0
23/04:00pm NNE 13 16 - - - - 10 - - 15.0 1021.1 0.0
23/03:30pm NNE 13 18 - - - - 10 - - 15.0 1021.4 0.0
23/03:00pm NE 14 19 - - - - 10 - - 14.9 1021.7 0.0
23/02:30pm NE 13 18 - - - - 10 - - 14.6 1022.0 0.0
23/02:00pm NE 13 19 - - - - 10 - - 14.4 1022.2 0.0
23/01:30pm NE 13 17 - - - - 10 - - 14.8 1022.6 0.0
23/01:00pm ENE 12 15 - - - - 10 - - 14.9 1023.3 0.0
23/12:30pm ENE 10 12 - - - - 10 - - 14.4 1023.9 0.0
23/12:00pm ENE 9 11 - - - - 10 - - 13.9 1024.5 0.0
23/11:30am ENE 9 11 - - - - 10 - - 13.6 1025.3 0.0
23/11:00am ENE 8 9 - - - - 10 - - 13.3 1025.9 0.0
23/10:30am E 5 8 - - - - 10 - - 13.5 1026.5 0.0
23/10:00am SSW 5 7 - - - - 10 - - 13.0 1026.7 0.0
23/09:30am NW 5 8 - - - - 10 - - 12.7 1026.8 0.0
23/09:00am WSW 5 7 - - - - 10 - - 11.2 1027.0 0.0
23/08:30am W 4 7 - - - - 10 - - 9.2 1027.0 0.0
23/08:00am WSW 3 4 - - - - 10 - - 7.2 1026.7 0.0
23/07:30am W 1 3 - - - - 10 - - 3.5 1026.4 0.0
23/07:00am W 3 5 - - - - 10 - - 0.9 1026.1 0.0
23/06:30am WSW 4 5 - - - - 10 - - 1.4 1025.8 0.0
23/06:00am W 4 6 - - - - 10 - - 1.3 1025.4 0.0
23/05:30am W 6 10 - - - - 10 - - 2.8 1025.2 0.0
23/05:00am WSW 6 9 - - - - 10 - - 2.4 1025.0 0.0
23/04:30am WSW 5 9 - - - - 10 - - 1.0 1024.8 0.0
23/04:00am WSW 5 6 - - - - 10 - - 1.9 1024.6 0.0
23/03:30am W 5 7 - - - - 10 - - 1.0 1024.7 0.0
23/03:00am WSW 4 7 - - - - 10 - - 0.7 1024.9 0.0
23/02:30am SW 6 8 - - - - 10 - - 0.8 1024.8 0.0
23/02:00am W 4 5 - - - - 10 - - 0.9 1025.0 0.0
23/01:30am W 4 6 - - - - 10 - - 1.0 1025.2 0.0
23/01:00am WNW 5 7 - - - - 10 - - 0.6 1025.1 0.0
23/12:30am WNW 3 4 - - - - 10 - - 1.5 1025.0 0.0
23/12:00am WSW 3 4 - - - - 10 - - 2.0 1024.8 0.0
 
Date/Time
EST
Wind Sea
Height
m
Swell Vis
km
Cloud Weather Temp
°C
Press
hPa
Rain since
9am
mm
Dir  Spd
kts
Gust
kts
Height
m
Period
s
Dir
22/11:30pm CALM 0 0 - - - - 10 - - 2.5 1024.6 0.0
22/11:00pm CALM 0 3 - - - - 10 - - 2.9 1024.6 0.0
22/10:30pm W 4 5 - - - - 10 - - 3.5 1024.5 0.0
22/10:00pm SSW 6 8 - - - - 10 - - 6.0 1024.4 0.0
22/09:30pm W 4 5 - - - - 10 - - 6.6 1024.4 0.0
22/09:00pm SW 6 6 - - - - 10 - - 7.4 1024.1 0.0
22/08:30pm SW 5 7 - - - - 10 - - 7.9 1023.6 0.0
22/08:00pm SW 8 11 - - - - 10 - - 9.9 1023.0 0.0
22/07:30pm SSW 9 11 - - - - 10 - - 10.6 1022.2 0.0
22/07:00pm SSW 8 10 - - - - 10 - - 10.9 1021.7 0.0
22/06:30pm SSW 7 9 - - - - 10 - - 11.7 1021.1 0.0
22/06:00pm SSW 9 13 - - - - 10 - - 12.6 1020.4 0.0
22/05:30pm SSW 10 14 - - - - 10 - - 13.2 1019.7 0.0
22/05:00pm SSW 13 17 - - - - 10 - - 14.2 1019.0 0.0
22/04:30pm SSW 13 22 - - - - 10 Partly cloudy - 15.0 1018.3 0.0
22/04:00pm SW 14 20 - - - - 10 - - 15.7 1017.4 0.0
22/03:30pm SW 15 22 - - - - 10 - - 16.1 1016.7 0.0
22/03:00pm SSW 17 27 - - - - 10 Mostly clear - 16.1 1016.2 0.0
22/02:34pm SSW 15 25 - - - - 10 Partly cloudy - 16.6 1016.2 0.0
22/02:30pm SSW 16 22 - - - - 10 Partly cloudy - 16.4 1016.0 0.0
22/02:04pm SSW 15 27 - - - - 10 Partly cloudy - 15.6 1015.8 0.0
22/02:00pm SSW 16 25 - - - - 10 Partly cloudy - 15.3 1015.8 0.0
22/01:30pm SSW 21 37 - - - - 10 - - 14.3 1015.3 0.0
22/01:00pm S 20 31 - - - - 10 Partly cloudy - 14.6 1015.1 0.0
22/12:48pm S 16 26 - - - - 10 Partly cloudy - 14.5 1015.0 0.0
22/12:30pm S 14 20 - - - - 10 Partly cloudy - 15.2 1014.6 0.0
22/12:00pm SW 16 30 - - - - 10 Cloudy - 15.7 1014.6 0.0
22/11:30am SSW 20 34 - - - - 10 Cloudy - 15.6 1014.5 0.0
22/11:11am SSW 15 25 - - - - 10 Partly cloudy - 15.5 1014.2 0.0
22/11:00am SSW 17 25 - - - - 10 Partly cloudy - 15.5 1014.2 0.0
22/10:30am SW 16 24 - - - - 10 Partly cloudy - 15.4 1013.8 0.0
22/10:00am SSW 17 32 - - - - 10 Partly cloudy - 15.4 1013.3 0.0
22/09:30am SW 19 29 - - - - 10 Partly cloudy - 16.1 1013.0 0.0
22/09:00am SW 19 31 - - - - 10 - - 16.2 1012.0 0.0
22/08:30am SW 21 31 - - - - 10 - - 16.3 1011.1 0.0
22/08:00am SW 19 32 - - - - 10 Partly cloudy - 16.5 1010.4 0.0
22/07:57am SW 16 29 - - - - 10 Partly cloudy - 16.3 1010.3 0.0
22/07:30am SW 11 20 - - - - 10 Partly cloudy - 16.3 1009.7 0.0
22/07:05am SW 15 29 - - - - 10 Partly cloudy - 15.9 1009.3 0.0
22/07:00am SW 13 29 - - - - 10 Partly cloudy - 15.8 1009.2 0.0
22/06:30am SW 18 26 - - - - 10 Partly cloudy - 16.1 1008.6 0.0
22/06:21am SW 15 29 - - - - 10 Partly cloudy - 16.3 1008.1 0.0
22/06:00am SW 13 20 - - - - 10 Mostly clear - 16.2 1008.0 0.0
22/05:30am SW 10 17 - - - - 10 Partly cloudy - 16.2 1007.2 0.0
22/05:00am WSW 10 14 - - - - 10 Partly cloudy - 16.0 1006.9 0.0
22/04:30am SSW 5 7 - - - - 10 Partly cloudy - 12.6 1006.5 0.0
22/04:00am SW 5 9 - - - - 10 Partly cloudy - 14.9 1006.4 0.0
22/03:30am W 9 18 - - - - 10 Partly cloudy - 16.4 1006.3 0.0
22/03:00am W 8 14 - - - - 10 Mostly cloudy - 16.8 1006.7 0.0
22/02:30am W 8 13 - - - - 10 Partly cloudy - 16.6 1006.9 0.0
22/02:00am W 10 17 - - - - 10 Partly cloudy - 16.7 1007.3 0.0
22/01:30am W 10 23 - - - - 10 Partly cloudy - 16.1 1007.5 0.0
22/01:25am W 7 21 - - - - 10 Partly cloudy - 15.5 1007.7 0.0
22/01:00am NW 3 8 - - - - 10 - - 10.3 1007.7 0.0
22/12:30am N 1 5 - - - - 10 - - 9.9 1008.1 0.0
22/12:00am NW 4 5 - - - - 10 - - 11.2 1008.5 0.0
 
Date/Time
EST
Wind Sea
Height
m
Swell Vis
km
Cloud Weather Temp
°C
Press
hPa
Rain since
9am
mm
Dir  Spd
kts
Gust
kts
Height
m
Period
s
Dir
21/11:30pm NW 4 8 - - - - 10 - - 14.7 1008.5 0.0
21/11:00pm W 5 11 - - - - 10 Partly cloudy - 15.2 1009.1 0.0
21/10:30pm WNW 5 7 - - - - 10 Partly cloudy - 15.0 1009.7 0.0
21/10:00pm SW 2 5 - - - - 10 Partly cloudy - 12.8 1010.1 0.0
21/09:30pm W 6 9 - - - - 10 - - 15.9 1010.5 0.0
21/09:00pm WNW 6 11 - - - - 10 Mostly clear - 16.0 1010.8 0.0
21/08:30pm WNW 5 8 - - - - 10 - - 15.8 1011.2 0.0
21/08:00pm WNW 7 11 - - - - 10 - - 16.8 1011.3 0.0
21/07:30pm WNW 7 14 - - - - 10 - - 16.9 1011.4 0.0
21/07:00pm WNW 6 11 - - - - 10 - - 17.1 1011.3 0.0
21/06:30pm W 7 12 - - - - 10 - - 17.9 1011.4 0.0
21/06:00pm W 6 10 - - - - 10 - - 18.0 1010.7 0.0
21/05:30pm WNW 5 11 - - - - 10 - - 18.7 1010.2 0.0
21/05:00pm W 8 14 - - - - 10 - - 20.1 1010.7 0.0
21/04:30pm WSW 10 16 - - - - 10 - - 21.5 1009.7 0.0
21/04:00pm W 11 22 - - - - 10 - - 21.6 1010.0 0.0
21/03:30pm SW 16 24 - - - - 10 - - 22.3 1009.8 0.0
21/03:00pm WSW 13 22 - - - - 10 Mostly clear - 23.0 1009.8 0.0

Other formats

Comma delimited format used in spreadsheet applications
http://www.bom.gov.au/fwo/IDN60701/IDN60701.95937.axf

JavaScript Object Notation format (JSON) in row-major order
http://www.bom.gov.au/fwo/IDN60701/IDN60701.95937.json

Data quality

Most of these data are generated automatically and are frequently updated. Quality checks on data are not normally performed. It is possible for incorrect values to appear. Refer to information at About Latest Weather Observations and please check the disclaimer before using these data.